Time;durP1;ratioP1;P1;durP2;ratioP2;P2;SDS_P1;SDS_P2;PMS_P1;PMS_P2;Temp;Humidity;BMP_temperature;BMP_pressure;BME280_temperature;BME280_humidity;BME280_pressure;Samples;Min_cycle;Max_cycle;Signal;HPM_P1;HPM_P2
2021/08/21 00:02:25;;;;;;;;;;;16.10;98.00;;;;;;5077581;28;20362;-66
2021/08/21 00:04:52;;;;;;;;;;;16.20;97.80;;;;;;5095411;28;19908;-66
2021/08/21 00:07:19;;;;;;;;;;;16.20;97.60;;;;;;5095164;28;19908;-66
2021/08/21 00:09:46;;;;;;;;;;;16.20;97.90;;;;;;5095103;28;19908;-66
2021/08/21 00:12:13;;;;;;;;;;;16.20;98.40;;;;;;5095203;28;19997;-66
2021/08/21 00:14:39;;;;;;;;;;;16.20;98.40;;;;;;5095105;28;19915;-66
2021/08/21 00:17:06;;;;;;;;;;;16.20;98.70;;;;;;5076537;28;19909;-66
2021/08/21 00:19:32;;;;;;;;;;;16.30;98.80;;;;;;5074606;28;19909;-66
2021/08/21 00:21:59;;;;;;;;;;;16.30;98.80;;;;;;5074813;28;19924;-66
2021/08/21 00:24:26;;;;;;;;;;;16.20;99.00;;;;;;5074736;28;19974;-66
2021/08/21 00:26:52;;;;;;;;;;;16.20;99.50;;;;;;5074409;28;19962;-65
2021/08/21 00:29:19;;;;;;;;;;;16.20;99.40;;;;;;5074018;28;20355;-66
2021/08/21 00:31:46;;;;;;;;;;;16.20;99.50;;;;;;5074118;28;19987;-66
2021/08/21 00:34:12;;;;;;;;;;;16.30;99.10;;;;;;5074382;28;19909;-66
2021/08/21 00:36:39;;;;;;;;;;;16.40;98.70;;;;;;5074525;28;19915;-65
2021/08/21 00:39:06;;;;;;;;;;;16.40;98.60;;;;;;5074514;28;19908;-65
2021/08/21 00:41:36;;;;;;;;;;;16.40;97.70;;;;;;5074094;28;19921;-65
2021/08/21 00:44:05;;;;;;;;;;;16.50;98.20;;;;;;5056171;28;19920;-66
2021/08/21 00:46:32;;;;;;;;;;;16.50;98.60;;;;;;5074078;28;19920;-65
2021/08/21 00:48:58;;;;;;;;;;;16.60;97.80;;;;;;5074088;28;20304;-66
2021/08/21 00:51:25;;;;;;;;;;;16.60;97.90;;;;;;5074188;28;19908;-66
2021/08/21 00:53:52;;;;;;;;;;;16.60;97.60;;;;;;5073953;28;19912;-66
2021/08/21 00:56:18;;;;;;;;;;;16.70;97.70;;;;;;5073831;28;19912;-66
2021/08/21 00:58:45;;;;;;;;;;;16.70;97.00;;;;;;5073746;28;20072;-66
2021/08/21 01:01:13;;;;;;;;;;;16.70;97.30;;;;;;5072581;28;20367;-66
2021/08/21 01:03:40;;;;;;;;;;;16.80;97.50;;;;;;5073811;28;19928;-66
2021/08/21 01:06:06;;;;;;;;;;;16.80;97.60;;;;;;5073753;28;19912;-66
2021/08/21 01:08:33;;;;;;;;;;;16.80;97.30;;;;;;5073746;28;19909;-65
2021/08/21 01:11:00;;;;;;;;;;;16.80;97.20;;;;;;5073696;28;19909;-65
2021/08/21 01:13:26;;;;;;;;;;;16.80;97.50;;;;;;5073783;28;19966;-66
2021/08/21 01:15:53;;;;;;;;;;;16.80;98.20;;;;;;5072741;28;19909;-66
2021/08/21 01:18:21;;;;;;;;;;;16.80;98.40;;;;;;5073487;28;20389;-66
2021/08/21 01:20:48;;;;;;;;;;;16.90;97.80;;;;;;5073519;28;19962;-66
2021/08/21 01:23:14;;;;;;;;;;;16.90;98.20;;;;;;5074033;28;19916;-67
2021/08/21 01:25:41;;;;;;;;;;;16.90;98.00;;;;;;5070548;28;19912;-67
2021/08/21 01:28:08;;;;;;;;;;;16.90;98.30;;;;;;5071397;28;19979;-67
2021/08/21 01:30:34;;;;;;;;;;;17.00;98.30;;;;;;5070896;28;20841;-66
2021/08/21 01:33:01;;;;;;;;;;;17.00;98.30;;;;;;5071197;28;20459;-66
2021/08/21 01:35:28;;;;;;;;;;;17.10;97.50;;;;;;5071355;28;20394;-66
2021/08/21 01:37:54;;;;;;;;;;;17.20;97.80;;;;;;5070667;28;19909;-66
2021/08/21 01:40:21;;;;;;;;;;;17.20;97.60;;;;;;5071118;28;19982;-66
2021/08/21 01:42:47;;;;;;;;;;;17.30;97.10;;;;;;5071180;28;19955;-66
2021/08/21 01:45:14;;;;;;;;;;;17.30;97.00;;;;;;5071380;28;19919;-65
2021/08/21 01:47:44;;;;;;;;;;;17.30;96.80;;;;;;5070666;28;19924;-66
2021/08/21 01:50:18;;;;;;;;;;;17.30;97.10;;;;;;5071101;28;19913;-66
2021/08/21 01:52:46;;;;;;;;;;;17.30;96.90;;;;;;5071288;28;19966;-66
2021/08/21 01:55:13;;;;;;;;;;;17.50;96.90;;;;;;5071108;28;19916;-67
2021/08/21 01:57:41;;;;;;;;;;;17.50;96.90;;;;;;5070849;28;20335;-66
2021/08/21 02:00:09;;;;;;;;;;;17.60;96.60;;;;;;5070777;28;19908;-66
2021/08/21 02:02:35;;;;;;;;;;;17.50;96.60;;;;;;5070808;28;19924;-66
2021/08/21 02:05:03;;;;;;;;;;;17.60;97.10;;;;;;5070523;28;19931;-66
2021/08/21 02:07:30;;;;;;;;;;;17.60;97.10;;;;;;5070652;28;20041;-66
2021/08/21 02:09:57;;;;;;;;;;;17.60;96.80;;;;;;5070218;28;20363;-66
2021/08/21 02:12:24;;;;;;;;;;;17.70;96.70;;;;;;5070695;28;19912;-66
2021/08/21 02:14:52;;;;;;;;;;;17.70;96.50;;;;;;5070732;28;20424;-66
2021/08/21 02:17:19;;;;;;;;;;;17.70;96.50;;;;;;5052429;28;20353;-66
2021/08/21 02:19:46;;;;;;;;;;;17.80;96.40;;;;;;5070447;28;20298;-68
2021/08/21 02:22:12;;;;;;;;;;;17.90;95.70;;;;;;5052509;28;20351;-66
2021/08/21 02:24:41;;;;;;;;;;;17.90;96.10;;;;;;5070651;28;20006;-66
2021/08/21 02:27:10;;;;;;;;;;;17.90;96.30;;;;;;5070432;28;19912;-66
2021/08/21 02:29:36;;;;;;;;;;;18.00;96.00;;;;;;5069876;28;19920;-66
2021/08/21 02:32:03;;;;;;;;;;;18.00;95.60;;;;;;5070193;28;20489;-66
2021/08/21 02:34:30;;;;;;;;;;;18.20;95.70;;;;;;5070530;28;19999;-66
2021/08/21 02:36:56;;;;;;;;;;;18.20;95.80;;;;;;5070440;28;20000;-66
2021/08/21 02:39:23;;;;;;;;;;;18.30;95.70;;;;;;5070567;28;19908;-65
2021/08/21 02:41:50;;;;;;;;;;;18.50;95.00;;;;;;5070032;28;20426;-66
2021/08/21 02:44:17;;;;;;;;;;;18.50;94.50;;;;;;5070297;28;19978;-66
2021/08/21 02:46:43;;;;;;;;;;;18.60;93.80;;;;;;5070278;28;19920;-66
2021/08/21 02:49:10;;;;;;;;;;;18.50;94.80;;;;;;5070158;28;19913;-66
2021/08/21 02:51:37;;;;;;;;;;;18.70;94.30;;;;;;5070052;28;19913;-65
2021/08/21 02:54:03;;;;;;;;;;;18.60;94.20;;;;;;5070228;28;19954;-66
2021/08/21 02:56:31;;;;;;;;;;;18.60;94.50;;;;;;5070095;28;19908;-66
2021/08/21 02:58:57;;;;;;;;;;;18.70;94.40;;;;;;5070031;28;19924;-66
2021/08/21 03:01:24;;;;;;;;;;;18.70;95.20;;;;;;5070178;28;19916;-66
2021/08/21 03:03:51;;;;;;;;;;;18.80;94.50;;;;;;5069696;28;19987;-66
2021/08/21 03:06:17;;;;;;;;;;;18.80;94.60;;;;;;5070279;28;19916;-66
2021/08/21 03:08:44;;;;;;;;;;;18.90;93.80;;;;;;5069808;28;19954;-66
2021/08/21 03:11:11;;;;;;;;;;;19.00;93.30;;;;;;5069881;28;19920;-66
2021/08/21 03:13:39;;;;;;;;;;;19.10;93.30;;;;;;5069774;28;19919;-66
2021/08/21 03:16:06;;;;;;;;;;;19.10;93.60;;;;;;5069947;28;19915;-66
2021/08/21 03:18:33;;;;;;;;;;;19.20;93.00;;;;;;5069940;28;20271;-66
2021/08/21 03:20:59;;;;;;;;;;;19.30;92.50;;;;;;5069984;28;19912;-66
2021/08/21 03:23:26;;;;;;;;;;;19.20;92.90;;;;;;5073401;28;19917;-66
2021/08/21 03:25:52;;;;;;;;;;;19.20;92.90;;;;;;5073423;28;19955;-66
2021/08/21 03:28:19;;;;;;;;;;;19.30;93.30;;;;;;5073646;28;19920;-66
2021/08/21 03:30:46;;;;;;;;;;;19.40;92.80;;;;;;5073666;28;19908;-66
2021/08/21 03:33:12;;;;;;;;;;;19.40;92.70;;;;;;5073638;28;20671;-66
2021/08/21 03:35:39;;;;;;;;;;;19.50;92.80;;;;;;5072930;28;19908;-66
2021/08/21 03:38:06;;;;;;;;;;;19.40;92.40;;;;;;5055492;28;19914;-66
2021/08/21 03:40:33;;;;;;;;;;;19.30;93.10;;;;;;5073318;28;19958;-66
2021/08/21 03:42:59;;;;;;;;;;;19.50;93.30;;;;;;5055384;28;20014;-66
2021/08/21 03:45:26;;;;;;;;;;;19.60;92.20;;;;;;5072357;28;19912;-67
2021/08/21 03:47:53;;;;;;;;;;;19.60;92.80;;;;;;5072757;28;20414;-66
2021/08/21 03:50:19;;;;;;;;;;;19.60;93.10;;;;;;5073359;28;19909;-67
2021/08/21 03:52:46;;;;;;;;;;;19.70;93.00;;;;;;5073399;28;19909;-66
2021/08/21 03:55:12;;;;;;;;;;;19.60;92.90;;;;;;5088840;28;20424;-66
2021/08/21 03:57:39;;;;;;;;;;;19.60;93.00;;;;;;5072913;28;20358;-66
2021/08/21 04:00:06;;;;;;;;;;;19.60;92.50;;;;;;5073404;28;19943;-67
2021/08/21 04:02:33;;;;;;;;;;;19.50;92.70;;;;;;5072882;28;19916;-66
2021/08/21 04:05:00;;;;;;;;;;;19.50;92.90;;;;;;5073141;28;19916;-68
2021/08/21 04:07:26;;;;;;;;;;;19.60;93.30;;;;;;5072923;28;19923;-66
2021/08/21 04:09:53;;;;;;;;;;;19.70;93.10;;;;;;5072849;28;19936;-67
2021/08/21 04:12:20;;;;;;;;;;;19.80;92.90;;;;;;5073059;28;20373;-65
2021/08/21 04:14:47;;;;;;;;;;;19.70;93.00;;;;;;5072601;28;19947;-66
2021/08/21 04:17:14;;;;;;;;;;;19.80;93.20;;;;;;5073005;28;19972;-67
2021/08/21 04:19:40;;;;;;;;;;;19.80;92.40;;;;;;5072846;28;20320;-65
2021/08/21 04:22:07;;;;;;;;;;;19.80;92.60;;;;;;5072374;28;19924;-65
2021/08/21 04:24:34;;;;;;;;;;;19.70;92.50;;;;;;5072536;28;20054;-65
2021/08/21 04:27:00;;;;;;;;;;;19.80;92.80;;;;;;5072375;28;19912;-67
2021/08/21 04:29:27;;;;;;;;;;;19.90;92.30;;;;;;5072645;28;19917;-65
2021/08/21 04:31:53;;;;;;;;;;;19.70;93.20;;;;;;5072157;28;20353;-67
2021/08/21 04:34:20;;;;;;;;;;;19.80;93.00;;;;;;5072700;28;20381;-66
2021/08/21 04:36:47;;;;;;;;;;;19.80;93.00;;;;;;5054308;28;20037;-65
2021/08/21 04:39:13;;;;;;;;;;;19.80;93.10;;;;;;5072435;28;20330;-66
2021/08/21 04:41:40;;;;;;;;;;;19.90;93.30;;;;;;5071793;28;19916;-66
2021/08/21 04:44:07;;;;;;;;;;;19.70;93.10;;;;;;5072108;28;19909;-66
2021/08/21 04:46:35;;;;;;;;;;;19.60;93.10;;;;;;5072244;28;19954;-66
2021/08/21 04:49:01;;;;;;;;;;;19.50;93.40;;;;;;5072130;28;19919;-66
2021/08/21 04:51:28;;;;;;;;;;;19.60;93.00;;;;;;5072256;28;20477;-66
2021/08/21 04:53:55;;;;;;;;;;;19.70;92.70;;;;;;5071765;28;20009;-66
2021/08/21 04:56:21;;;;;;;;;;;19.80;93.00;;;;;;5072149;28;20337;-66
2021/08/21 04:58:48;;;;;;;;;;;19.90;92.50;;;;;;5072017;28;19917;-66
2021/08/21 05:01:16;;;;;;;;;;;19.90;91.40;;;;;;5071867;28;19912;-66
2021/08/21 05:03:42;;;;;;;;;;;19.90;91.30;;;;;;5071617;28;19913;-65
2021/08/21 05:06:09;;;;;;;;;;;19.90;91.10;;;;;;5071753;28;20383;-66
2021/08/21 05:08:36;;;;;;;;;;;19.90;91.30;;;;;;5071802;28;19909;-66
2021/08/21 05:11:02;;;;;;;;;;;19.80;90.50;;;;;;5071853;28;20394;-66
2021/08/21 05:13:31;;;;;;;;;;;19.80;90.70;;;;;;5071574;28;19908;-66
2021/08/21 05:15:57;;;;;;;;;;;19.90;90.40;;;;;;5071517;28;20386;-66
2021/08/21 05:18:36;;;;;;;;;;;19.90;89.80;;;;;;5071865;28;19953;-66
2021/08/21 05:21:07;;;;;;;;;;;20.00;90.00;;;;;;5071243;28;20378;-66
2021/08/21 05:23:34;;;;;;;;;;;20.00;90.00;;;;;;5071027;28;20046;-65
2021/08/21 05:26:01;;;;;;;;;;;20.00;89.20;;;;;;5073610;28;19908;-66
2021/08/21 05:28:28;;;;;;;;;;;20.00;89.30;;;;;;5073422;28;20003;-66
2021/08/21 05:30:55;;;;;;;;;;;20.00;89.10;;;;;;5073507;28;19915;-65
2021/08/21 05:33:21;;;;;;;;;;;20.00;89.50;;;;;;5073307;28;20377;-66
2021/08/21 05:35:48;;;;;;;;;;;20.10;89.00;;;;;;5073118;28;20397;-66
2021/08/21 05:38:15;;;;;;;;;;;20.00;88.60;;;;;;5073252;28;20341;-65
2021/08/21 05:40:42;;;;;;;;;;;20.10;88.70;;;;;;5073080;28;19979;-65
2021/08/21 05:43:09;;;;;;;;;;;20.00;88.00;;;;;;5073066;28;19923;-66
2021/08/21 05:45:36;;;;;;;;;;;20.10;87.40;;;;;;5072137;28;20009;-65
2021/08/21 05:48:03;;;;;;;;;;;20.20;88.00;;;;;;5072977;28;19928;-66
2021/08/21 05:50:29;;;;;;;;;;;20.00;87.80;;;;;;5073204;28;19913;-65
2021/08/21 05:52:56;;;;;;;;;;;19.90;88.70;;;;;;5073089;28;19915;-66
2021/08/21 05:55:23;;;;;;;;;;;19.90;88.90;;;;;;5072792;28;19943;-65
2021/08/21 05:57:49;;;;;;;;;;;19.90;89.10;;;;;;5072532;28;20353;-66
2021/08/21 06:00:16;;;;;;;;;;;20.10;88.20;;;;;;5072727;28;19977;-66
2021/08/21 06:02:43;;;;;;;;;;;20.10;88.00;;;;;;5072857;28;20018;-66
2021/08/21 06:05:13;;;;;;;;;;;20.10;88.30;;;;;;5072871;28;19995;-66
2021/08/21 06:07:40;;;;;;;;;;;20.20;88.50;;;;;;5072389;28;19908;-66
2021/08/21 06:10:07;;;;;;;;;;;20.20;88.60;;;;;;5072594;28;19909;-66
2021/08/21 06:12:34;;;;;;;;;;;20.10;89.60;;;;;;5072667;28;19908;-67
2021/08/21 06:15:00;;;;;;;;;;;20.10;89.60;;;;;;5072809;28;19908;-66
2021/08/21 06:17:27;;;;;;;;;;;20.20;91.30;;;;;;5072963;28;19962;-66
2021/08/21 06:19:56;;;;;;;;;;;20.10;92.10;;;;;;5072558;28;19909;-65
2021/08/21 06:22:23;;;;;;;;;;;19.90;92.70;;;;;;5072946;28;19924;-66
2021/08/21 06:24:50;;;;;;;;;;;19.80;93.40;;;;;;5072582;28;20007;-66
2021/08/21 06:27:17;;;;;;;;;;;19.60;94.00;;;;;;5072820;28;19913;-66
2021/08/21 06:29:43;;;;;;;;;;;19.50;94.60;;;;;;5072381;28;20379;-67
2021/08/21 06:32:10;;;;;;;;;;;19.30;94.20;;;;;;5072685;28;20386;-65
2021/08/21 06:34:37;;;;;;;;;;;19.30;93.90;;;;;;5072714;28;19908;-65
2021/08/21 06:37:05;;;;;;;;;;;19.20;94.30;;;;;;5072516;28;19908;-65
2021/08/21 06:39:33;;;;;;;;;;;19.00;94.70;;;;;;5072224;28;20038;-65
2021/08/21 06:42:00;;;;;;;;;;;19.00;94.90;;;;;;5072265;28;19916;-65
2021/08/21 06:44:27;;;;;;;;;;;18.90;95.20;;;;;;5072026;28;19915;-65
2021/08/21 06:46:53;;;;;;;;;;;18.90;95.60;;;;;;5072038;28;19926;-65
2021/08/21 06:49:20;;;;;;;;;;;18.80;95.60;;;;;;5072076;28;19909;-66
2021/08/21 06:51:47;;;;;;;;;;;18.80;96.10;;;;;;5071963;28;19912;-66
2021/08/21 06:54:14;;;;;;;;;;;18.80;96.40;;;;;;5072347;28;19909;-66
2021/08/21 06:56:41;;;;;;;;;;;18.70;96.50;;;;;;5075387;28;19909;-65
2021/08/21 06:59:08;;;;;;;;;;;18.70;97.50;;;;;;5076436;28;19962;-64
2021/08/21 07:01:36;;;;;;;;;;;18.80;98.60;;;;;;5076193;28;19923;-66
2021/08/21 07:04:03;;;;;;;;;;;18.70;99.10;;;;;;5076624;28;20326;-66
2021/08/21 07:06:29;;;;;;;;;;;18.80;99.90;;;;;;5076351;28;20255;-65
2021/08/21 07:08:56;;;;;;;;;;;18.70;99.90;;;;;;5076308;28;19910;-66
2021/08/21 07:11:23;;;;;;;;;;;18.60;99.90;;;;;;5076293;28;19991;-66
2021/08/21 07:13:49;;;;;;;;;;;18.50;99.90;;;;;;5075851;28;20006;-66
2021/08/21 07:16:16;;;;;;;;;;;18.40;99.90;;;;;;5075997;28;19915;-65
2021/08/21 07:18:43;;;;;;;;;;;18.30;99.90;;;;;;5075961;28;19915;-66
2021/08/21 07:21:10;;;;;;;;;;;18.30;99.90;;;;;;5075949;28;19916;-66
2021/08/21 07:23:37;;;;;;;;;;;18.20;99.90;;;;;;5075903;28;20282;-66
2021/08/21 07:26:04;;;;;;;;;;;18.00;99.90;;;;;;5075784;28;19908;-67
2021/08/21 07:28:31;;;;;;;;;;;18.00;99.90;;;;;;5075380;28;19981;-66
2021/08/21 07:30:58;;;;;;;;;;;18.00;99.90;;;;;;5075798;28;19908;-65
2021/08/21 07:33:24;;;;;;;;;;;18.00;99.90;;;;;;5075682;28;19941;-65
2021/08/21 07:35:51;;;;;;;;;;;17.90;99.90;;;;;;5057421;28;19908;-66
2021/08/21 07:38:18;;;;;;;;;;;17.80;99.90;;;;;;5075784;28;19913;-66
2021/08/21 07:40:44;;;;;;;;;;;17.80;99.90;;;;;;5075532;28;19912;-66
2021/08/21 07:43:11;;;;;;;;;;;17.70;99.90;;;;;;5075255;28;20011;-66
2021/08/21 07:45:38;;;;;;;;;;;17.70;99.90;;;;;;5074750;28;19916;-67
2021/08/21 07:48:04;;;;;;;;;;;17.70;99.90;;;;;;5075401;28;19920;-67
2021/08/21 07:50:31;;;;;;;;;;;17.70;99.90;;;;;;5075364;28;19919;-66
2021/08/21 07:52:58;;;;;;;;;;;17.50;99.90;;;;;;5075570;28;20055;-67
2021/08/21 07:55:25;;;;;;;;;;;17.60;99.90;;;;;;5075318;28;20286;-66
2021/08/21 07:57:53;;;;;;;;;;;17.60;99.90;;;;;;5075020;28;20018;-67
2021/08/21 08:00:20;;;;;;;;;;;17.50;99.90;;;;;;5074825;28;20374;-67
2021/08/21 08:02:46;;;;;;;;;;;17.50;99.90;;;;;;5075054;28;19913;-68
2021/08/21 08:05:13;;;;;;;;;;;17.40;99.90;;;;;;5074936;28;19913;-67
2021/08/21 08:07:40;;;;;;;;;;;17.40;99.90;;;;;;5073972;28;19930;-67
2021/08/21 08:10:07;;;;;;;;;;;17.30;99.90;;;;;;5074993;28;20010;-67
2021/08/21 08:12:34;;;;;;;;;;;17.20;99.90;;;;;;5074770;28;20260;-66
2021/08/21 08:15:01;;;;;;;;;;;17.10;99.90;;;;;;5074432;28;19998;-66
2021/08/21 08:17:28;;;;;;;;;;;17.10;99.90;;;;;;5074858;28;20363;-67
2021/08/21 08:19:54;;;;;;;;;;;17.10;99.90;;;;;;5075101;28;20236;-68
2021/08/21 08:22:21;;;;;;;;;;;17.10;99.90;;;;;;5074994;28;20371;-67
2021/08/21 08:24:48;;;;;;;;;;;17.00;99.90;;;;;;5074858;28;19991;-67
2021/08/21 08:27:15;;;;;;;;;;;17.00;99.90;;;;;;5074651;28;19916;-67
2021/08/21 08:29:42;;;;;;;;;;;17.10;99.90;;;;;;5073861;28;19966;-67
2021/08/21 08:32:08;;;;;;;;;;;17.10;99.90;;;;;;5074559;28;19912;-68
2021/08/21 08:34:35;;;;;;;;;;;17.00;99.90;;;;;;5074564;28;19908;-68
2021/08/21 08:37:03;;;;;;;;;;;17.00;99.90;;;;;;5074650;28;19908;-68
2021/08/21 08:39:30;;;;;;;;;;;17.00;99.90;;;;;;5074696;28;20011;-67
2021/08/21 08:41:57;;;;;;;;;;;16.90;99.90;;;;;;5046191;28;19921;-66
2021/08/21 08:44:31;;;;;;;;;;;16.90;99.90;;;;;;5014508;28;20098;-68
2021/08/21 08:46:59;;;;;;;;;;;16.90;99.90;;;;;;5013691;28;20000;-68
2021/08/21 08:49:27;;;;;;;;;;;16.90;99.90;;;;;;5015521;28;19913;-68
2021/08/21 08:52:06;;;;;;;;;;;16.90;99.90;;;;;;5015111;28;19909;-68
2021/08/21 08:54:37;;;;;;;;;;;16.90;99.90;;;;;;5013764;28;19916;-67
2021/08/21 08:57:04;;;;;;;;;;;16.90;99.90;;;;;;5046724;28;20005;-67
2021/08/21 08:59:33;;;;;;;;;;;16.90;99.90;;;;;;5046543;28;19943;-67
2021/08/21 09:02:03;;;;;;;;;;;16.90;99.90;;;;;;5014913;28;19972;-67
2021/08/21 09:04:44;;;;;;;;;;;;;;;;;;;;;
2021/08/21 09:07:11;;;;;;;;;;;16.90;99.90;;;;;;5013673;28;19916;-67
2021/08/21 09:09:47;;;;;;;;;;;16.90;99.90;;;;;;5014714;28;19917;-68
2021/08/21 09:12:30;;;;;;;;;;;16.80;99.90;;;;;;5013167;28;19910;-67
2021/08/21 09:15:25;;;;;;;;;;;16.80;99.90;;;;;;5014407;28;19910;-68
2021/08/21 09:18:24;;;;;;;;;;;16.80;99.90;;;;;;5013293;28;20376;-69
2021/08/21 09:21:02;;;;;;;;;;;16.70;99.90;;;;;;5046432;28;20296;-67
2021/08/21 09:23:33;;;;;;;;;;;16.60;99.90;;;;;;5014273;28;19921;-67
2021/08/21 09:26:08;;;;;;;;;;;16.60;99.90;;;;;;5014135;28;19909;-67
2021/08/21 09:28:36;;;;;;;;;;;16.60;99.90;;;;;;5014119;28;19978;-68
2021/08/21 09:31:02;;;;;;;;;;;16.60;99.90;;;;;;5014074;28;19944;-67
2021/08/21 09:33:29;;;;;;;;;;;16.50;99.90;;;;;;5045981;28;20342;-68
2021/08/21 09:35:57;;;;;;;;;;;16.50;99.90;;;;;;5014031;28;19909;-67
2021/08/21 09:38:30;;;;;;;;;;;16.50;99.90;;;;;;5013868;28;20008;-68
2021/08/21 09:41:05;;;;;;;;;;;16.50;99.90;;;;;;5013645;28;19924;-67
2021/08/21 09:43:36;;;;;;;;;;;16.50;99.90;;;;;;5013437;28;19910;-67
2021/08/21 09:46:16;;;;;;;;;;;16.50;99.90;;;;;;5013458;28;19910;-68
2021/08/21 09:48:56;;;;;;;;;;;16.50;99.90;;;;;;5013755;28;19972;-68
2021/08/21 09:51:30;;;;;;;;;;;16.40;99.90;;;;;;5013572;28;19964;-66
2021/08/21 09:54:04;;;;;;;;;;;16.40;99.90;;;;;;5013685;28;19909;-66
2021/08/21 09:56:38;;;;;;;;;;;16.40;99.90;;;;;;5013392;28;19916;-67
2021/08/21 09:59:05;;;;;;;;;;;16.40;99.90;;;;;;5013359;28;19909;-66
2021/08/21 10:01:32;;;;;;;;;;;16.40;99.90;;;;;;5013241;28;20376;-68
2021/08/21 10:03:59;;;;;;;;;;;16.40;99.90;;;;;;5013408;28;19952;-68
2021/08/21 10:06:26;;;;;;;;;;;16.30;99.90;;;;;;5013443;28;19910;-68
2021/08/21 10:09:28;;;;;;;;;;;16.40;99.90;;;;;;5013592;28;19909;-68
2021/08/21 10:11:46;;;;;;;;;;;16.30;99.90;;;;;;5013003;28;20324;-67
2021/08/21 10:14:14;;;;;;;;;;;16.40;99.90;;;;;;5013349;28;19909;-67
2021/08/21 10:16:42;;;;;;;;;;;16.40;99.90;;;;;;5013303;28;19947;-68
2021/08/21 10:19:09;;;;;;;;;;;16.40;99.90;;;;;;5013178;28;19952;-68
2021/08/21 10:21:36;;;;;;;;;;;16.40;99.90;;;;;;5044649;28;20335;-68
2021/08/21 10:24:03;;;;;;;;;;;16.30;99.90;;;;;;5013218;28;19964;-66
2021/08/21 10:26:34;;;;;;;;;;;16.40;99.90;;;;;;5012869;28;19910;-68
2021/08/21 10:29:01;;;;;;;;;;;16.40;99.90;;;;;;5013144;28;19963;-68
2021/08/21 10:31:39;;;;;;;;;;;16.30;99.90;;;;;;5012626;28;19914;-68
2021/08/21 10:34:06;;;;;;;;;;;16.40;99.90;;;;;;5013031;28;19910;-68
2021/08/21 10:36:39;;;;;;;;;;;16.50;99.90;;;;;;5012985;28;19910;-68
2021/08/21 10:39:15;;;;;;;;;;;16.60;99.90;;;;;;5012929;28;20330;-67
2021/08/21 10:41:42;;;;;;;;;;;16.50;99.90;;;;;;5012511;28;20364;-66
2021/08/21 10:44:09;;;;;;;;;;;16.50;99.90;;;;;;5012841;28;20074;-68
2021/08/21 10:46:35;;;;;;;;;;;16.40;99.90;;;;;;5012544;28;20278;-68
2021/08/21 10:49:03;;;;;;;;;;;16.40;99.90;;;;;;5013005;28;19910;-68
2021/08/21 10:51:30;;;;;;;;;;;16.30;99.90;;;;;;5012824;28;19909;-67
2021/08/21 10:53:57;;;;;;;;;;;16.20;99.90;;;;;;5013072;28;19910;-67
2021/08/21 10:56:36;;;;;;;;;;;16.20;99.90;;;;;;5012989;28;19917;-68
2021/08/21 10:59:04;;;;;;;;;;;16.10;99.90;;;;;;5012891;28;19913;-69
2021/08/21 11:01:31;;;;;;;;;;;16.10;99.90;;;;;;5012392;28;19914;-69
2021/08/21 11:03:57;;;;;;;;;;;16.10;99.90;;;;;;5012773;28;19909;-69
2021/08/21 11:06:30;;;;;;;;;;;16.00;99.90;;;;;;5012949;28;20250;-66
2021/08/21 11:08:59;;;;;;;;;;;16.00;99.90;;;;;;5012954;28;19910;-67
2021/08/21 11:11:41;;;;;;;;;;;15.90;99.90;;;;;;5012705;28;19913;-67
2021/08/21 11:14:20;;;;;;;;;;;15.80;99.90;;;;;;5012655;28;20015;-67
2021/08/21 11:16:55;;;;;;;;;;;15.80;99.90;;;;;;5012607;28;19920;-67
2021/08/21 11:19:25;;;;;;;;;;;15.80;99.90;;;;;;5012593;28;19989;-66
2021/08/21 11:22:11;;;;;;;;;;;15.70;99.90;;;;;;5043966;28;19917;-67
2021/08/21 11:24:53;;;;;;;;;;;15.70;99.90;;;;;;5012500;28;19914;-67
2021/08/21 11:27:23;;;;;;;;;;;15.70;99.90;;;;;;5012288;28;20816;-67
2021/08/21 11:30:21;;;;;;;;;;;15.70;99.90;;;;;;5012244;28;20667;-66
2021/08/21 11:32:50;;;;;;;;;;;15.70;99.90;;;;;;5012495;28;19917;-67
2021/08/21 11:35:35;;;;;;;;;;;15.70;99.90;;;;;;5012309;28;20360;-66
2021/08/21 11:38:07;;;;;;;;;;;15.70;99.90;;;;;;5012387;28;20339;-66
2021/08/21 11:40:35;;;;;;;;;;;15.80;99.90;;;;;;5012296;28;19988;-66
2021/08/21 11:43:03;;;;;;;;;;;15.80;99.90;;;;;;5014133;28;20390;-66
2021/08/21 11:45:31;;;;;;;;;;;15.80;99.90;;;;;;5016940;28;19910;-67
2021/08/21 11:47:59;;;;;;;;;;;15.80;99.90;;;;;;5015760;28;19936;-67
2021/08/21 11:50:31;;;;;;;;;;;15.80;99.90;;;;;;5015773;28;19956;-67
2021/08/21 11:53:07;;;;;;;;;;;15.70;99.90;;;;;;5015825;28;19909;-67
2021/08/21 11:55:35;;;;;;;;;;;15.70;99.90;;;;;;5015788;28;19910;-67
2021/08/21 11:58:02;;;;;;;;;;;15.60;99.90;;;;;;5015987;28;20369;-67
2021/08/21 12:00:30;;;;;;;;;;;15.70;99.90;;;;;;5015663;28;20324;-67
2021/08/21 12:02:59;;;;;;;;;;;15.60;99.90;;;;;;5015643;28;19913;-67
2021/08/21 12:05:33;;;;;;;;;;;15.70;99.90;;;;;;5015619;28;19972;-67
2021/08/21 12:08:13;;;;;;;;;;;15.70;99.90;;;;;;5015524;28;20012;-66
2021/08/21 12:10:51;;;;;;;;;;;15.70;99.90;;;;;;5015261;28;19910;-66
2021/08/21 12:13:19;;;;;;;;;;;15.80;99.90;;;;;;5015463;28;20000;-67
2021/08/21 12:15:47;;;;;;;;;;;15.80;99.90;;;;;;5015227;28;20257;-67
2021/08/21 12:18:14;;;;;;;;;;;15.80;99.90;;;;;;5015314;28;19945;-67
2021/08/21 12:20:41;;;;;;;;;;;15.70;99.90;;;;;;5015317;28;19910;-66
2021/08/21 12:23:08;;;;;;;;;;;15.70;99.90;;;;;;5015295;28;19936;-66
2021/08/21 12:25:51;;;;;;;;;;;15.60;99.90;;;;;;5015400;28;19909;-66
2021/08/21 12:28:19;;;;;;;;;;;15.60;99.90;;;;;;5015259;28;19916;-67
2021/08/21 12:30:54;;;;;;;;;;;15.60;99.90;;;;;;5015472;28;19910;-66
2021/08/21 12:33:32;;;;;;;;;;;15.60;99.90;;;;;;5015114;28;19910;-67
2021/08/21 12:36:34;;;;;;;;;;;15.60;99.90;;;;;;5014678;28;20332;-66
2021/08/21 12:39:01;;;;;;;;;;;15.50;99.90;;;;;;4993304;28;19961;-67
2021/08/21 12:41:29;;;;;;;;;;;15.60;99.90;;;;;;5010522;28;19918;-67
2021/08/21 12:44:21;;;;;;;;;;;15.60;99.90;;;;;;5015025;28;19915;-67
2021/08/21 12:46:58;;;;;;;;;;;15.60;99.90;;;;;;5013555;28;20303;-67
2021/08/21 12:49:38;;;;;;;;;;;15.60;99.90;;;;;;5014935;28;19965;-66
2021/08/21 12:52:06;;;;;;;;;;;15.60;99.90;;;;;;5014755;28;19909;-66
2021/08/21 12:54:35;;;;;;;;;;;15.60;99.90;;;;;;5014315;28;20284;-65
2021/08/21 12:57:09;;;;;;;;;;;15.60;99.90;;;;;;5014555;28;19913;-65
2021/08/21 12:59:36;;;;;;;;;;;15.60;99.90;;;;;;5014499;28;19914;-66
2021/08/21 13:02:04;;;;;;;;;;;15.60;99.90;;;;;;5014417;28;19924;-66
2021/08/21 13:04:31;;;;;;;;;;;15.60;99.90;;;;;;5014494;28;19917;-66
2021/08/21 13:07:02;;;;;;;;;;;15.50;99.90;;;;;;5014253;28;19910;-66
2021/08/21 13:09:29;;;;;;;;;;;15.50;99.90;;;;;;5013103;28;19914;-66
2021/08/21 13:11:56;;;;;;;;;;;15.40;99.90;;;;;;5014173;28;20349;-66
2021/08/21 13:14:23;;;;;;;;;;;15.40;99.90;;;;;;5014294;28;19910;-66
2021/08/21 13:16:50;;;;;;;;;;;15.40;99.90;;;;;;5014284;28;19910;-67
2021/08/21 13:19:17;;;;;;;;;;;15.40;99.90;;;;;;5014395;28;19945;-66
2021/08/21 13:21:44;;;;;;;;;;;15.30;99.90;;;;;;5013910;28;20008;-67
2021/08/21 13:24:13;;;;;;;;;;;15.30;99.90;;;;;;5014035;28;19916;-66
2021/08/21 13:26:40;;;;;;;;;;;15.40;99.90;;;;;;5013920;28;20011;-66
2021/08/21 13:29:08;;;;;;;;;;;15.40;99.90;;;;;;5013982;28;20376;-66
2021/08/21 13:31:34;;;;;;;;;;;15.40;99.90;;;;;;5012504;28;20000;-66
2021/08/21 13:34:06;;;;;;;;;;;15.40;99.80;;;;;;5013773;28;19910;-66
2021/08/21 13:36:36;;;;;;;;;;;15.50;99.80;;;;;;5013978;28;19916;-67
2021/08/21 13:39:07;;;;;;;;;;;15.40;99.40;;;;;;5013822;28;19909;-66
2021/08/21 13:41:34;;;;;;;;;;;15.50;99.20;;;;;;5020799;28;19963;-66
2021/08/21 13:44:01;;;;;;;;;;;15.50;98.10;;;;;;5033465;28;19940;-67
2021/08/21 13:46:27;;;;;;;;;;;15.50;98.20;;;;;;5033152;28;19913;-66
2021/08/21 13:48:54;;;;;;;;;;;15.50;96.70;;;;;;5033502;28;19932;-65
2021/08/21 13:51:21;;;;;;;;;;;15.60;97.20;;;;;;5033639;28;20321;-66
2021/08/21 13:53:48;;;;;;;;;;;15.60;96.70;;;;;;5032756;28;19947;-66
2021/08/21 13:56:14;;;;;;;;;;;15.70;96.10;;;;;;5033042;28;20055;-67
2021/08/21 13:58:41;;;;;;;;;;;15.70;96.00;;;;;;5033222;28;19928;-67
2021/08/21 14:01:08;;;;;;;;;;;15.70;96.10;;;;;;5033089;28;19952;-67
2021/08/21 14:03:34;;;;;;;;;;;15.70;96.40;;;;;;5033111;28;19966;-66
2021/08/21 14:06:03;;;;;;;;;;;15.70;96.40;;;;;;5032853;28;20036;-66
2021/08/21 14:08:30;;;;;;;;;;;15.70;96.60;;;;;;5032372;28;19910;-67
2021/08/21 14:10:56;;;;;;;;;;;15.70;96.60;;;;;;5032998;28;19996;-67
2021/08/21 14:13:23;;;;;;;;;;;15.70;96.50;;;;;;5032908;28;20368;-66
2021/08/21 14:15:49;;;;;;;;;;;15.60;97.00;;;;;;5032638;28;19989;-66
2021/08/21 14:18:38;;;;;;;;;;;15.60;97.10;;;;;;5032965;28;19944;-67
2021/08/21 14:21:08;;;;;;;;;;;15.60;97.10;;;;;;5032839;28;19965;-66
2021/08/21 14:23:35;;;;;;;;;;;15.50;97.40;;;;;;5032157;28;20384;-66
2021/08/21 14:26:06;;;;;;;;;;;15.50;97.30;;;;;;5032618;28;19917;-66
2021/08/21 14:28:33;;;;;;;;;;;15.40;97.20;;;;;;5032701;28;19999;-66